Terminal Aerodrome Forecast
Issued by NWS Pocatello, ID

Home | Current Version | Previous Version | Text Only | Print | Product List | Glossary On
Versions: 1 2 3 4 5 6 7 8 9 10 11 12
FTUS45 KPIH 251738
KIDA 251738Z 2518/2618 36015KT P6SM VCSH SCT015 BKN050 OVC080
     FM252000 36015KT 4SM -SN BR SCT008 BKN015 OVC050
      TEMPO 2520/2522 1SM -SN BR BKN008 OVC015
     FM252200 01015G25KT 6SM -SN BLSN SCT008 BKN025 OVC050
      TEMPO 2522/2602 2SM -SN BR BKN008 OVC025
     FM260300 36010G20KT 6SM -SN SCT008 BKN025 OVC070
     FM260600 03015G25KT 4SM -SN BLSN SCT008 OVC015=

USA.gov is the U.S. government's official web portal to all federal, state and local government web resources and services.